createdAt,value
2018-11-13T00:01:34.948Z,50.47
2018-11-13T00:04:06.001Z,48.87
2018-11-13T00:06:36.355Z,50.47
2018-11-13T00:09:09.137Z,48.37
2018-11-13T00:11:39.992Z,48.90
2018-11-13T00:14:10.666Z,49.17
2018-11-13T00:16:41.480Z,48.67
2018-11-13T00:19:12.415Z,50.47
2018-11-13T00:21:43.146Z,48.57
2018-11-13T00:24:14.454Z,48.73
2018-11-13T00:26:46.044Z,48.23
2018-11-13T00:29:16.198Z,50.60
2018-11-13T00:31:46.842Z,47.87
2018-11-13T00:34:17.429Z,49.23
2018-11-13T00:36:48.374Z,47.87
2018-11-13T00:39:19.435Z,49.27
2018-11-13T00:41:49.155Z,47.60
2018-11-13T00:44:19.818Z,48.53
2018-11-13T00:46:50.725Z,51.13
2018-11-13T00:49:21.569Z,49.07
2018-11-13T00:51:52.381Z,47.43
2018-11-13T00:54:23.272Z,50.20
2018-11-13T00:56:53.961Z,52.53
2018-11-13T00:59:25.079Z,49.63
2018-11-13T01:01:56.405Z,51.40
2018-11-13T01:04:27.196Z,50.97
2018-11-13T01:06:58.233Z,50.67
2018-11-13T01:09:29.115Z,51.50
2018-11-13T01:12:00.093Z,50.23
2018-11-13T01:14:30.599Z,52.03
2018-11-13T01:17:01.229Z,52.10
2018-11-13T01:19:32.150Z,50.40
2018-11-13T01:22:02.426Z,52.30
2018-11-13T01:24:33.740Z,50.90
2018-11-13T01:27:04.721Z,49.87
2018-11-13T01:29:35.200Z,51.40
2018-11-13T01:32:06.076Z,50.73
2018-11-13T01:34:36.870Z,52.83
2018-11-13T01:37:08.675Z,51.23
2018-11-13T01:39:38.595Z,52.40
2018-11-13T01:42:09.089Z,51.33
2018-11-13T01:44:39.132Z,52.47
2018-11-13T01:47:09.784Z,51.93
2018-11-13T01:49:40.657Z,52.17
2018-11-13T01:52:11.740Z,51.70
2018-11-13T01:54:41.687Z,49.83
2018-11-13T01:57:12.757Z,51.00
2018-11-13T01:59:43.509Z,51.53
2018-11-13T02:02:14.429Z,51.80
2018-11-13T02:04:44.415Z,51.87
2018-11-13T02:07:15.225Z,49.23
2018-11-13T02:09:46.048Z,49.63
2018-11-13T02:12:17.073Z,51.33
2018-11-13T02:14:48.132Z,53.70
2018-11-13T02:17:19.095Z,51.97
2018-11-13T02:19:49.949Z,52.67
2018-11-13T02:22:21.122Z,52.03
2018-11-13T02:24:52.033Z,51.67
2018-11-13T02:27:22.938Z,51.83
2018-11-13T02:29:54.226Z,49.20
2018-11-13T02:32:25.082Z,52.33
2018-11-13T02:34:55.528Z,47.50
2018-11-13T02:37:26.371Z,46.83
2018-11-13T02:39:57.125Z,47.63
2018-11-13T02:42:27.009Z,45.57
2018-11-13T02:44:58.049Z,45.97
2018-11-13T02:47:28.760Z,44.13
2018-11-13T02:49:59.660Z,46.53
2018-11-13T02:52:29.687Z,42.67
2018-11-13T02:55:00.532Z,43.87
2018-11-13T02:57:31.227Z,45.53
2018-11-13T03:00:01.743Z,44.70
2018-11-13T03:02:32.431Z,45.37
2018-11-13T03:05:04.020Z,44.27
2018-11-13T03:07:34.908Z,45.47
2018-11-13T03:10:06.174Z,44.37
2018-11-13T03:12:36.134Z,45.70
2018-11-13T03:15:06.944Z,45.07
2018-11-13T03:17:38.164Z,46.80
2018-11-13T03:20:10.582Z,47.50
2018-11-13T03:22:41.421Z,47.83
2018-11-13T03:25:14.552Z,49.87
2018-11-13T03:27:45.213Z,48.37
2018-11-13T03:30:20.654Z,48.30
2018-11-13T03:32:51.683Z,49.53
2018-11-13T03:35:23.325Z,49.53
2018-11-13T03:37:54.168Z,50.13
2018-11-13T03:40:25.170Z,48.23
2018-11-13T03:42:56.266Z,50.17
2018-11-13T03:45:26.669Z,50.27
2018-11-13T03:47:57.596Z,51.17
2018-11-13T03:50:28.510Z,50.57
2018-11-13T03:52:59.333Z,48.27
2018-11-13T03:55:30.258Z,47.57
2018-11-13T03:58:01.049Z,46.17
2018-11-13T04:00:31.705Z,50.87
2018-11-13T04:03:02.921Z,47.37
2018-11-13T04:05:33.405Z,45.03
2018-11-13T04:08:04.599Z,45.10
2018-11-13T04:10:35.251Z,42.47
2018-11-13T04:13:06.859Z,39.77
2018-11-13T04:15:37.706Z,43.30
2018-11-13T04:18:09.681Z,41.90
2018-11-13T04:20:42.039Z,41.50
2018-11-13T04:23:12.208Z,42.33
2018-11-13T04:25:43.042Z,42.50
2018-11-13T04:28:14.007Z,43.47
2018-11-13T04:30:45.151Z,41.70
2018-11-13T04:33:16.792Z,42.53
2018-11-13T04:35:48.055Z,43.40
2018-11-13T04:38:19.866Z,44.70
2018-11-13T04:40:51.005Z,42.93
2018-11-13T04:43:22.027Z,47.87
2018-11-13T04:45:53.296Z,47.97
2018-11-13T04:48:24.301Z,56.53
2018-11-13T04:50:55.593Z,51.93
2018-11-13T04:53:27.258Z,54.70
2018-11-13T04:56:00.815Z,53.80
2018-11-13T04:58:32.031Z,55.83
2018-11-13T05:01:02.081Z,51.57
2018-11-13T05:03:32.692Z,49.57
2018-11-13T05:06:03.697Z,51.33
2018-11-13T05:08:35.182Z,52.00
2018-11-13T05:11:05.190Z,52.13
2018-11-13T05:13:35.877Z,49.33
2018-11-13T05:16:07.322Z,50.17
2018-11-13T05:18:38.623Z,47.57
2018-11-13T05:21:09.421Z,48.50
2018-11-13T05:23:40.088Z,47.50
2018-11-13T05:26:11.123Z,46.93
2018-11-13T05:28:41.813Z,47.93
2018-11-13T05:31:12.750Z,47.57
2018-11-13T05:33:43.787Z,46.30
2018-11-13T05:36:14.567Z,46.87
2018-11-13T05:38:46.179Z,47.23
2018-11-13T05:41:16.524Z,45.20
2018-11-13T05:43:47.147Z,46.03
2018-11-13T05:46:18.118Z,46.50
2018-11-13T05:48:48.860Z,45.07
2018-11-13T05:51:19.150Z,45.83
2018-11-13T05:53:50.857Z,45.03
2018-11-13T05:56:21.835Z,44.43
2018-11-13T05:58:52.513Z,46.20
2018-11-13T06:01:23.469Z,45.67
2018-11-13T06:03:54.277Z,45.33
2018-11-13T06:06:25.013Z,44.17
2018-11-13T06:08:55.476Z,45.00
2018-11-13T06:11:26.388Z,46.83
2018-11-13T06:13:57.414Z,47.73
2018-11-13T06:16:28.219Z,49.93
2018-11-13T06:18:59.269Z,51.83
2018-11-13T06:21:30.424Z,47.87
2018-11-13T06:24:01.356Z,50.03
2018-11-13T06:26:32.048Z,49.53
2018-11-13T06:29:02.939Z,51.53
2018-11-13T06:31:33.514Z,49.47
2018-11-13T06:34:04.586Z,56.67
2018-11-13T06:36:35.581Z,56.17
2018-11-13T06:39:09.590Z,51.77
2018-11-13T06:41:40.435Z,51.93
2018-11-13T06:44:10.900Z,49.17
2018-11-13T06:46:42.236Z,57.70
2018-11-13T06:49:12.909Z,57.63
2018-11-13T06:51:43.820Z,52.80
2018-11-13T06:54:25.510Z,52.53
2018-11-13T06:56:56.568Z,47.77
2018-11-13T06:59:27.123Z,43.13
2018-11-13T07:01:58.047Z,47.07
2018-11-13T07:04:28.869Z,46.73
2018-11-13T07:07:00.037Z,43.90
2018-11-13T07:09:31.998Z,41.73
2018-11-13T07:12:03.033Z,45.73
2018-11-13T07:14:33.325Z,47.30
2018-11-13T07:17:04.102Z,45.13
2018-11-13T07:19:35.040Z,41.43
2018-11-13T07:22:06.040Z,41.80
2018-11-13T07:24:36.962Z,40.77
2018-11-13T07:27:09.880Z,43.97
2018-11-13T07:29:40.611Z,45.50
2018-11-13T07:32:11.051Z,41.83
2018-11-13T07:34:41.861Z,44.17
2018-11-13T07:37:12.318Z,38.70
2018-11-13T07:39:43.149Z,42.27
2018-11-13T07:42:13.958Z,44.30
2018-11-13T07:44:44.499Z,40.57
2018-11-13T07:47:15.335Z,40.33
2018-11-13T07:49:46.046Z,39.57
2018-11-13T07:52:17.086Z,40.70
2018-11-13T07:54:47.951Z,37.27
2018-11-13T07:57:18.766Z,38.07
2018-11-13T07:59:49.410Z,31.43
2018-11-13T08:02:19.764Z,36.93
2018-11-13T08:04:49.849Z,37.10
2018-11-13T08:07:20.868Z,38.33
2018-11-13T08:09:51.916Z,37.43
2018-11-13T08:12:22.713Z,39.83
2018-11-13T08:14:53.217Z,36.13
2018-11-13T08:17:24.162Z,37.50
2018-11-13T08:19:55.150Z,34.77
2018-11-13T08:22:26.029Z,37.87
2018-11-13T08:24:57.022Z,36.60
2018-11-13T08:27:27.569Z,34.40
2018-11-13T08:29:58.279Z,38.83
2018-11-13T08:32:28.139Z,40.13
2018-11-13T08:34:59.233Z,37.00
2018-11-13T08:37:29.124Z,35.77
2018-11-13T08:40:00.663Z,36.60
2018-11-13T08:42:31.786Z,35.90
2018-11-13T08:45:02.574Z,37.03
2018-11-13T08:47:32.605Z,37.03
2018-11-13T08:50:03.313Z,36.73
2018-11-13T08:52:33.376Z,35.27
2018-11-13T08:55:04.282Z,35.17
2018-11-13T08:57:35.562Z,35.13
2018-11-13T09:00:07.126Z,37.83
2018-11-13T09:02:37.826Z,33.53
2018-11-13T09:05:09.249Z,35.33
2018-11-13T09:07:40.542Z,35.17
2018-11-13T09:10:12.913Z,32.97
2018-11-13T09:12:44.235Z,33.77
2018-11-13T09:15:17.306Z,34.37
2018-11-13T09:17:47.963Z,32.33
2018-11-13T09:20:19.414Z,41.70
2018-11-13T09:22:49.852Z,36.07
2018-11-13T09:25:21.260Z,37.50
2018-11-13T09:27:52.628Z,39.07
2018-11-13T09:30:23.502Z,39.73
2018-11-13T09:32:54.448Z,38.73
2018-11-13T09:35:25.140Z,38.37
2018-11-13T09:37:56.701Z,38.80
2018-11-13T09:40:28.011Z,40.23
2018-11-13T09:42:58.978Z,40.13
2018-11-13T09:45:29.832Z,40.73
2018-11-13T09:47:59.884Z,41.03
2018-11-13T09:50:30.574Z,40.80
2018-11-13T09:53:02.399Z,38.10
2018-11-13T09:55:33.730Z,39.87
2018-11-13T09:58:05.268Z,39.37
2018-11-13T10:00:36.858Z,40.83
2018-11-13T10:03:08.833Z,41.20
2018-11-13T10:05:39.196Z,41.10
2018-11-13T10:08:10.475Z,45.50
2018-11-13T10:10:41.964Z,46.47
2018-11-13T10:13:12.317Z,45.57
2018-11-13T10:15:43.832Z,48.53
2018-11-13T10:18:15.075Z,48.23
2018-11-13T10:20:46.617Z,49.80
2018-11-13T10:23:17.723Z,49.90
2018-11-13T10:25:49.063Z,49.93
2018-11-13T10:28:20.428Z,50.07
2018-11-13T10:30:51.840Z,50.23
2018-11-13T10:33:23.259Z,50.87
2018-11-13T10:35:54.404Z,51.77
2018-11-13T10:38:25.228Z,48.90
2018-11-13T10:40:56.368Z,50.97
2018-11-13T10:43:27.498Z,51.73
2018-11-13T10:45:58.620Z,46.73
2018-11-13T10:48:29.860Z,48.17
2018-11-13T10:51:01.023Z,48.40
2018-11-13T10:53:32.351Z,47.33
2018-11-13T10:56:03.715Z,46.00
2018-11-13T10:58:34.893Z,41.10
2018-11-13T11:01:11.949Z,37.97
2018-11-13T11:03:44.048Z,37.60
2018-11-13T11:06:15.255Z,31.90
2018-11-13T11:08:47.070Z,28.03
2018-11-13T11:11:18.487Z,25.60
2018-11-13T11:13:49.866Z,31.67
2018-11-13T11:16:21.287Z,27.63
2018-11-13T11:18:52.452Z,27.87
2018-11-13T11:21:23.657Z,29.57
2018-11-13T11:23:54.804Z,32.23
2018-11-13T11:26:26.195Z,31.07
2018-11-13T11:28:57.161Z,32.23
2018-11-13T11:31:28.633Z,32.77
2018-11-13T11:33:59.807Z,33.47
2018-11-13T11:36:31.176Z,33.50
2018-11-13T11:39:02.407Z,33.13
2018-11-13T11:41:33.820Z,32.83
2018-11-13T11:44:05.338Z,33.30
2018-11-13T11:46:36.584Z,31.17
2018-11-13T11:49:08.030Z,30.13
2018-11-13T11:51:39.296Z,32.63
2018-11-13T11:54:10.689Z,31.63
2018-11-13T11:56:41.227Z,31.77
2018-11-13T11:59:12.405Z,31.90
2018-11-13T12:01:43.682Z,30.93
2018-11-13T12:04:15.342Z,32.07
2018-11-13T12:06:46.150Z,35.70
2018-11-13T12:09:16.937Z,39.63
2018-11-13T12:11:47.760Z,40.47
2018-11-13T12:14:18.274Z,42.47
2018-11-13T12:16:49.416Z,42.30
2018-11-13T12:19:20.793Z,46.20
2018-11-13T12:21:51.393Z,43.90
2018-11-13T12:24:23.671Z,46.33
2018-11-13T12:26:54.973Z,39.87
2018-11-13T12:29:26.119Z,43.67
2018-11-13T12:31:58.356Z,40.40
2018-11-13T12:34:29.718Z,36.27
2018-11-13T12:37:00.486Z,34.70
2018-11-13T12:39:31.521Z,32.10
2018-11-13T12:42:02.712Z,29.33
2018-11-13T12:44:33.802Z,28.13
2018-11-13T12:47:05.060Z,26.73
2018-11-13T12:49:36.888Z,27.53
2018-11-13T12:52:13.265Z,26.57
2018-11-13T12:54:45.008Z,23.70
2018-11-13T12:57:16.304Z,21.83
2018-11-13T12:59:47.066Z,19.40
2018-11-13T13:02:17.391Z,20.43
2018-11-13T13:04:48.287Z,20.00
2018-11-13T13:07:19.069Z,21.97
2018-11-13T13:09:50.236Z,20.43
2018-11-13T13:12:21.668Z,19.70
2018-11-13T13:14:53.004Z,21.20
2018-11-13T13:17:24.336Z,21.40
2018-11-13T13:19:54.882Z,21.90
2018-11-13T13:22:26.026Z,20.90
2018-11-13T13:24:57.081Z,20.30
2018-11-13T13:27:28.020Z,25.67
2018-11-13T13:29:59.528Z,20.50
2018-11-13T13:32:30.328Z,20.07
2018-11-13T13:35:01.768Z,19.10
2018-11-13T13:37:33.125Z,24.03
2018-11-13T13:40:04.142Z,17.87
2018-11-13T13:42:34.798Z,17.27
2018-11-13T13:45:06.389Z,15.30
2018-11-13T13:47:37.599Z,14.93
2018-11-13T13:50:08.765Z,15.13
2018-11-13T13:52:40.109Z,16.90
2018-11-13T13:55:11.197Z,15.93
2018-11-13T13:57:42.305Z,17.70
2018-11-13T14:00:14.196Z,17.37
2018-11-13T14:02:45.075Z,16.60
2018-11-13T14:05:15.773Z,16.90
2018-11-13T14:07:47.549Z,18.40
2018-11-13T14:10:18.740Z,18.53
2018-11-13T14:12:50.093Z,19.07
2018-11-13T14:15:21.580Z,19.13
2018-11-13T14:17:52.590Z,19.20
2018-11-13T14:20:23.492Z,20.60
2018-11-13T14:22:54.729Z,18.30
2018-11-13T14:25:25.864Z,18.73
2018-11-13T14:27:56.829Z,18.43
2018-11-13T14:30:29.569Z,22.80
2018-11-13T14:33:02.735Z,21.77
2018-11-13T14:35:33.911Z,21.00
2018-11-13T14:38:05.213Z,23.77
2018-11-13T14:40:39.715Z,23.43
2018-11-13T14:43:11.055Z,26.33
2018-11-13T14:45:42.333Z,26.70
2018-11-13T14:48:13.614Z,29.23
2018-11-13T14:50:44.984Z,28.97
2018-11-13T14:53:15.600Z,27.37
2018-11-13T14:55:47.567Z,28.23
2018-11-13T14:58:18.285Z,40.10
2018-11-13T15:00:49.028Z,32.73
2018-11-13T15:03:19.568Z,30.80
2018-11-13T15:05:49.530Z,30.37
2018-11-13T15:08:20.089Z,36.07
2018-11-13T15:10:52.883Z,31.90
2018-11-13T15:13:24.901Z,29.57
2018-11-13T15:15:55.641Z,29.70
2018-11-13T15:18:26.619Z,29.07
2018-11-13T15:20:57.459Z,30.00
2018-11-13T15:23:27.293Z,29.10
2018-11-13T15:25:58.429Z,28.67
2018-11-13T15:28:29.176Z,29.00
2018-11-13T15:31:00.340Z,28.23
2018-11-13T15:33:33.324Z,26.73
2018-11-13T15:36:07.947Z,27.70
2018-11-13T15:38:39.405Z,28.30
2018-11-13T15:41:10.566Z,27.93
2018-11-13T15:43:41.515Z,28.57
2018-11-13T15:46:12.670Z,29.17
2018-11-13T15:48:44.036Z,29.03
2018-11-13T15:51:15.363Z,28.37
2018-11-13T15:53:46.637Z,27.77
2018-11-13T15:56:18.254Z,28.00
2018-11-13T15:58:49.709Z,30.73
2018-11-13T16:01:20.992Z,32.73
2018-11-13T16:03:52.211Z,31.90
2018-11-13T16:06:23.827Z,31.87
2018-11-13T16:08:55.151Z,32.77
2018-11-13T16:11:25.599Z,29.70
2018-11-13T16:13:55.940Z,36.10
2018-11-13T16:16:26.796Z,35.47
2018-11-13T16:18:56.684Z,39.80
2018-11-13T16:21:28.064Z,35.73
2018-11-13T16:23:59.394Z,39.27
2018-11-13T16:26:30.636Z,41.57
2018-11-13T16:29:01.820Z,37.93
2018-11-13T16:31:33.140Z,28.93
2018-11-13T16:34:03.889Z,23.07
2018-11-13T16:36:35.206Z,23.80
2018-11-13T16:39:10.319Z,19.73
2018-11-13T16:41:41.559Z,18.30
2018-11-13T16:44:12.633Z,16.57
2018-11-13T16:46:42.781Z,15.93
2018-11-13T16:49:13.809Z,14.80
2018-11-13T16:51:45.120Z,15.57
2018-11-13T16:54:16.201Z,14.93
2018-11-13T16:56:47.465Z,17.10
2018-11-13T16:59:19.573Z,16.87
2018-11-13T17:01:51.434Z,16.33
2018-11-13T17:04:22.654Z,17.93
2018-11-13T17:06:54.151Z,17.90
2018-11-13T17:09:25.436Z,17.80
2018-11-13T17:11:56.752Z,17.77
2018-11-13T17:14:27.681Z,18.13
2018-11-13T17:16:58.927Z,18.07
2018-11-13T17:19:30.669Z,17.07
2018-11-13T17:22:02.260Z,16.17
2018-11-13T17:24:34.245Z,17.03
2018-11-13T17:27:05.547Z,16.93
2018-11-13T17:29:36.871Z,16.20
2018-11-13T17:32:08.518Z,13.97
2018-11-13T17:34:39.644Z,14.77
2018-11-13T17:37:10.671Z,14.07
2018-11-13T17:39:41.509Z,13.20
2018-11-13T17:42:12.332Z,14.80
2018-11-13T17:44:43.104Z,13.73
2018-11-13T17:47:14.385Z,15.43
2018-11-13T17:49:45.772Z,14.90
2018-11-13T17:52:17.667Z,16.10
2018-11-13T17:54:48.932Z,14.17
2018-11-13T17:57:20.014Z,14.00
2018-11-13T17:59:51.498Z,12.40
2018-11-13T18:02:22.693Z,13.47
2018-11-13T18:04:54.775Z,12.50
2018-11-13T18:07:26.258Z,13.30
2018-11-13T18:09:56.536Z,12.33
2018-11-13T18:12:27.968Z,12.53
2018-11-13T18:14:59.337Z,12.30
2018-11-13T18:17:30.243Z,12.07
2018-11-13T18:20:01.544Z,12.77
2018-11-13T18:22:32.339Z,11.90
2018-11-13T18:25:04.234Z,12.23
2018-11-13T18:27:35.653Z,12.90
2018-11-13T18:30:12.058Z,12.70
2018-11-13T18:32:42.608Z,13.77
2018-11-13T18:35:17.279Z,13.90
2018-11-13T18:37:49.237Z,14.03
2018-11-13T18:40:20.081Z,13.40
2018-11-13T18:42:51.714Z,13.83
2018-11-13T18:45:25.422Z,13.77
2018-11-13T18:47:56.135Z,13.57
2018-11-13T18:50:28.418Z,13.33
2018-11-13T18:52:59.627Z,13.23
2018-11-13T18:55:30.611Z,13.00
2018-11-13T18:58:02.303Z,13.33
2018-11-13T19:00:35.432Z,12.57
2018-11-13T19:03:06.947Z,12.97
2018-11-13T19:05:37.137Z,12.10
2018-11-13T19:08:08.715Z,13.10
2018-11-13T19:10:42.077Z,12.13
2018-11-13T19:13:23.097Z,11.97
2018-11-13T19:15:56.969Z,12.53
2018-11-13T19:18:28.168Z,10.83
2018-11-13T19:20:59.223Z,11.10
2018-11-13T19:23:30.073Z,11.23
2018-11-13T19:26:01.293Z,9.63
2018-11-13T19:28:32.895Z,9.43
2018-11-13T19:31:04.233Z,9.30
2018-11-13T19:33:35.012Z,9.80
2018-11-13T19:36:06.034Z,9.37
2018-11-13T19:38:36.317Z,10.33
2018-11-13T19:41:07.312Z,10.00
2018-11-13T19:43:38.517Z,10.23
2018-11-13T19:46:09.713Z,10.93
2018-11-13T19:48:40.684Z,9.93
2018-11-13T19:51:11.911Z,9.70
2018-11-13T19:53:43.210Z,9.87
2018-11-13T19:56:14.210Z,10.27
2018-11-13T19:58:45.478Z,9.67
2018-11-13T20:01:16.076Z,10.17
2018-11-13T20:03:47.360Z,9.50
2018-11-13T20:06:17.854Z,10.60
2018-11-13T20:08:48.463Z,8.70
2018-11-13T20:11:19.466Z,8.60
2018-11-13T20:13:51.288Z,8.50
2018-11-13T20:16:22.019Z,9.20
2018-11-13T20:18:53.066Z,9.53
2018-11-13T20:21:24.884Z,7.60
2018-11-13T20:23:56.389Z,8.37
2018-11-13T20:26:27.265Z,8.20
2018-11-13T20:28:58.578Z,8.63
2018-11-13T20:31:29.504Z,7.57
2018-11-13T20:34:00.208Z,8.27
2018-11-13T20:36:31.821Z,7.60
2018-11-13T20:39:03.145Z,7.30
2018-11-13T20:41:33.619Z,8.13
2018-11-13T20:44:04.369Z,8.93
2018-11-13T20:46:35.631Z,7.97
2018-11-13T20:49:06.707Z,9.03
2018-11-13T20:51:37.759Z,8.20
2018-11-13T20:54:09.095Z,9.20
2018-11-13T20:56:39.795Z,8.23
2018-11-13T20:59:10.480Z,8.50
2018-11-13T21:01:41.530Z,8.37
2018-11-13T21:04:12.179Z,8.50
2018-11-13T21:06:43.703Z,7.90
2018-11-13T21:09:14.791Z,8.53
2018-11-13T21:11:46.155Z,9.53
2018-11-13T21:14:18.146Z,8.93
2018-11-13T21:16:49.664Z,9.10
2018-11-13T21:19:20.755Z,10.90
2018-11-13T21:21:52.020Z,10.60
2018-11-13T21:24:23.531Z,9.90
2018-11-13T21:26:55.350Z,11.03
2018-11-13T21:29:27.943Z,10.67
2018-11-13T21:31:59.498Z,10.13
2018-11-13T21:34:30.889Z,10.80
2018-11-13T21:37:33.327Z,10.60
2018-11-13T21:40:04.690Z,9.90
2018-11-13T21:42:35.465Z,10.73
2018-11-13T21:45:06.956Z,8.70
2018-11-13T21:47:37.083Z,7.23
2018-11-13T21:50:09.584Z,6.70
2018-11-13T21:52:40.506Z,6.57
2018-11-13T21:55:12.848Z,6.47
2018-11-13T21:57:44.105Z,6.23
2018-11-13T22:00:21.063Z,5.80
2018-11-13T22:02:54.191Z,6.07
2018-11-13T22:05:26.010Z,6.07
2018-11-13T22:07:56.815Z,6.00
2018-11-13T22:10:27.052Z,5.50
2018-11-13T22:12:58.265Z,6.20
2018-11-13T22:15:30.047Z,5.37
2018-11-13T22:18:01.786Z,5.93
2018-11-13T22:20:32.272Z,6.57
2018-11-13T22:23:03.424Z,7.20
2018-11-13T22:25:34.466Z,6.70
2018-11-13T22:28:05.558Z,6.50
2018-11-13T22:30:36.246Z,6.57
2018-11-13T22:33:06.356Z,6.80
2018-11-13T22:35:36.502Z,6.47
2018-11-13T22:38:07.182Z,6.80
2018-11-13T22:40:37.838Z,6.73
2018-11-13T22:43:08.934Z,7.60
2018-11-13T22:45:40.100Z,7.33
2018-11-13T22:48:11.108Z,6.63
2018-11-13T22:50:42.191Z,6.10
2018-11-13T22:53:13.477Z,6.63
2018-11-13T22:55:44.392Z,5.67
2018-11-13T22:58:15.777Z,5.90
2018-11-13T23:00:48.328Z,5.50
2018-11-13T23:03:20.115Z,6.30
2018-11-13T23:05:51.685Z,5.60
2018-11-13T23:08:22.735Z,6.13
2018-11-13T23:10:54.196Z,5.97
2018-11-13T23:13:25.292Z,6.37
2018-11-13T23:15:57.077Z,6.97
2018-11-13T23:18:28.269Z,6.37
2018-11-13T23:20:59.576Z,6.57
2018-11-13T23:23:30.884Z,5.83
2018-11-13T23:26:02.019Z,5.43
2018-11-13T23:28:32.892Z,5.60
2018-11-13T23:31:03.976Z,5.87
2018-11-13T23:33:35.477Z,5.37
2018-11-13T23:36:06.652Z,6.70
2018-11-13T23:38:37.665Z,5.37
2018-11-13T23:41:08.589Z,5.47
2018-11-13T23:43:39.780Z,4.90
2018-11-13T23:46:10.792Z,5.50
2018-11-13T23:48:41.974Z,5.50
2018-11-13T23:51:12.947Z,6.20
2018-11-13T23:53:43.970Z,6.53
2018-11-13T23:56:14.791Z,7.17
2018-11-13T23:58:45.601Z,6.37
